createdAt,value
2023-06-24T00:00:26.134Z,14.25
2023-06-24T00:01:17.219Z,14.38
2023-06-24T00:02:08.484Z,9.82
2023-06-24T00:03:04.195Z,10.23
2023-06-24T00:03:54.944Z,8.68
2023-06-24T00:04:45.561Z,10.20
2023-06-24T00:05:39.995Z,8.20
2023-06-24T00:06:31.793Z,11.75
2023-06-24T00:07:23.701Z,8.23
2023-06-24T00:08:14.861Z,8.00
2023-06-24T00:09:05.838Z,8.30
2023-06-24T00:09:56.974Z,8.23
2023-06-24T00:10:48.293Z,8.85
2023-06-24T00:11:39.333Z,8.10
2023-06-24T00:12:30.131Z,9.32
2023-06-24T00:13:20.897Z,7.18
2023-06-24T00:14:12.056Z,7.63
2023-06-24T00:15:03.367Z,7.85
2023-06-24T00:15:54.185Z,19.92
2023-06-24T00:16:45.396Z,7.60
2023-06-24T00:17:36.985Z,6.78
2023-06-24T00:18:30.128Z,10.27
2023-06-24T00:19:28.048Z,9.18
2023-06-24T00:20:21.187Z,10.20
2023-06-24T00:21:11.823Z,8.43
2023-06-24T00:22:04.683Z,10.35
2023-06-24T00:22:55.793Z,12.02
2023-06-24T00:23:47.632Z,8.98
2023-06-24T00:24:40.878Z,7.45
2023-06-24T00:25:31.745Z,7.90
2023-06-24T00:26:22.520Z,6.93
2023-06-24T00:27:13.307Z,9.65
2023-06-24T00:28:04.284Z,10.00
2023-06-24T00:28:55.798Z,9.27
2023-06-24T00:29:46.518Z,13.40
2023-06-24T00:30:37.514Z,7.15
2023-06-24T00:31:28.290Z,10.65
2023-06-24T00:32:19.137Z,8.30
2023-06-24T00:33:12.142Z,11.23
2023-06-24T00:34:03.144Z,7.07
2023-06-24T00:34:53.955Z,8.88
2023-06-24T00:35:44.691Z,10.40
2023-06-24T00:36:39.483Z,11.00
2023-06-24T00:37:30.551Z,10.05
2023-06-24T00:38:21.244Z,12.48
2023-06-24T00:39:12.032Z,9.93
2023-06-24T00:40:04.506Z,9.70
2023-06-24T00:40:55.363Z,9.40
2023-06-24T00:41:46.313Z,9.80
2023-06-24T00:42:37.063Z,6.85
2023-06-24T00:43:27.958Z,6.97
2023-06-24T00:44:21.023Z,12.20
2023-06-24T00:46:03.852Z,8.68
2023-06-24T00:46:55.358Z,7.80
2023-06-24T00:48:37.561Z,10.15
2023-06-24T00:49:28.670Z,9.45
2023-06-24T00:50:19.334Z,9.70
2023-06-24T00:51:10.256Z,8.13
2023-06-24T00:52:02.050Z,8.20
2023-06-24T00:52:52.877Z,5.95
2023-06-24T00:53:43.724Z,9.02
2023-06-24T00:54:34.600Z,13.43
2023-06-24T00:55:25.477Z,8.25
2023-06-24T00:56:20.032Z,9.38
2023-06-24T00:57:11.620Z,7.10
2023-06-24T00:58:02.442Z,7.18
2023-06-24T00:59:46.850Z,7.90
2023-06-24T01:00:38.811Z,7.95
2023-06-24T01:01:34.697Z,7.95
2023-06-24T01:02:29.229Z,9.57
2023-06-24T01:03:20.644Z,10.90
2023-06-24T01:04:11.311Z,12.30
2023-06-24T01:05:02.215Z,8.82
2023-06-24T01:05:55.624Z,6.68
2023-06-24T01:06:47.061Z,9.90
2023-06-24T01:07:42.039Z,9.18
2023-06-24T01:08:33.070Z,9.70
2023-06-24T01:09:25.303Z,10.15
2023-06-24T01:10:16.399Z,6.00
2023-06-24T01:11:07.431Z,12.32
2023-06-24T01:11:58.445Z,8.07
2023-06-24T01:12:49.385Z,9.68
2023-06-24T01:13:41.090Z,10.15
2023-06-24T01:15:23.263Z,11.27
2023-06-24T01:17:20.830Z,8.48
2023-06-24T01:18:30.613Z,12.73
2023-06-24T01:19:40.464Z,7.45
2023-06-24T01:20:47.524Z,8.73
2023-06-24T01:22:34.448Z,8.52
2023-06-24T01:24:24.695Z,11.20
2023-06-24T01:25:32.028Z,9.75
2023-06-24T01:26:33.217Z,9.85
2023-06-24T01:28:03.479Z,10.65
2023-06-24T01:29:00.550Z,7.53
2023-06-24T01:30:20.431Z,9.35
2023-06-24T01:31:50.180Z,6.68
2023-06-24T01:32:50.229Z,14.63
2023-06-24T01:33:51.590Z,9.55
2023-06-24T01:34:58.592Z,7.82
2023-06-24T01:35:50.119Z,13.27
2023-06-24T01:36:45.432Z,6.55
2023-06-24T01:37:41.530Z,6.97
2023-06-24T01:38:44.090Z,8.07
2023-06-24T01:39:39.261Z,8.98
2023-06-24T01:40:42.229Z,7.63
2023-06-24T01:41:41.407Z,8.75
2023-06-24T01:42:38.133Z,8.32
2023-06-24T01:43:29.620Z,6.50
2023-06-24T01:44:21.886Z,6.95
2023-06-24T01:45:33.460Z,7.70
2023-06-24T01:46:26.865Z,7.68
2023-06-24T01:47:25.929Z,8.95
2023-06-24T01:48:20.482Z,7.60
2023-06-24T01:49:15.739Z,8.02
2023-06-24T01:50:11.387Z,6.55
2023-06-24T01:51:10.820Z,9.73
2023-06-24T01:52:02.269Z,11.18
2023-06-24T01:52:56.011Z,10.05
2023-06-24T01:53:59.165Z,9.25
2023-06-24T01:54:53.083Z,7.65
2023-06-24T01:55:46.935Z,9.25
2023-06-24T01:56:42.538Z,12.13
2023-06-24T01:57:36.104Z,9.32
2023-06-24T01:58:27.245Z,9.65
2023-06-24T01:59:19.336Z,7.93
2023-06-24T02:00:11.893Z,9.10
2023-06-24T02:01:16.456Z,11.60
2023-06-24T02:02:09.289Z,10.57
2023-06-24T02:03:01.945Z,7.30
2023-06-24T02:03:56.050Z,10.55
2023-06-24T02:04:47.141Z,9.20
2023-06-24T02:05:40.955Z,10.95
2023-06-24T02:06:33.937Z,9.32
2023-06-24T02:08:17.885Z,10.98
2023-06-24T02:09:11.421Z,11.80
2023-06-24T02:10:04.451Z,9.82
2023-06-24T02:10:58.101Z,10.27
2023-06-24T02:11:50.252Z,10.23
2023-06-24T02:12:43.084Z,10.32
2023-06-24T02:13:36.872Z,8.23
2023-06-24T02:14:29.917Z,11.15
2023-06-24T02:15:22.486Z,9.32
2023-06-24T02:16:15.498Z,14.10
2023-06-24T02:17:09.156Z,11.77
2023-06-24T02:18:03.638Z,10.60
2023-06-24T02:18:56.712Z,12.23
2023-06-24T02:19:49.556Z,8.98
2023-06-24T02:20:41.779Z,8.27
2023-06-24T02:21:33.198Z,24.65
2023-06-24T02:22:25.816Z,9.43
2023-06-24T02:23:17.704Z,8.63
2023-06-24T02:24:09.864Z,9.10
2023-06-24T02:25:01.239Z,9.68
2023-06-24T02:25:52.359Z,14.68
2023-06-24T02:26:43.191Z,9.07
2023-06-24T02:27:36.564Z,15.73
2023-06-24T02:28:28.278Z,11.23
2023-06-24T02:29:19.933Z,15.70
2023-06-24T02:31:03.531Z,12.50
2023-06-24T02:31:55.242Z,12.48
2023-06-24T02:32:46.226Z,10.27
2023-06-24T02:33:37.257Z,13.65
2023-06-24T02:34:28.830Z,13.27
2023-06-24T02:35:19.820Z,15.38
2023-06-24T02:36:12.350Z,10.40
2023-06-24T02:37:03.396Z,11.05
2023-06-24T02:37:54.232Z,8.65
2023-06-24T02:38:45.388Z,10.70
2023-06-24T02:39:39.014Z,8.73
2023-06-24T02:40:30.297Z,11.98
2023-06-24T02:41:21.809Z,9.93
2023-06-24T02:42:14.025Z,16.25
2023-06-24T02:43:04.757Z,12.88
2023-06-24T02:43:55.656Z,11.38
2023-06-24T02:44:47.499Z,11.27
2023-06-24T02:45:40.065Z,14.52
2023-06-24T02:46:33.835Z,15.25
2023-06-24T02:47:25.091Z,12.95
2023-06-24T02:48:17.357Z,10.93
2023-06-24T02:49:10.379Z,11.93
2023-06-24T02:50:02.140Z,17.17
2023-06-24T02:50:55.484Z,15.38
2023-06-24T02:51:46.685Z,13.02
2023-06-24T02:52:40.122Z,12.35
2023-06-24T02:53:34.783Z,15.50
2023-06-24T02:54:26.888Z,13.05
2023-06-24T02:55:36.811Z,11.52
2023-06-24T02:56:29.261Z,15.20
2023-06-24T02:57:21.399Z,12.40
2023-06-24T02:58:40.891Z,10.68
2023-06-24T02:59:44.225Z,12.55
2023-06-24T03:00:38.557Z,11.00
2023-06-24T03:01:40.064Z,8.27
2023-06-24T03:02:33.182Z,8.82
2023-06-24T03:03:23.993Z,16.35
2023-06-24T03:04:19.901Z,10.05
2023-06-24T03:05:11.906Z,10.73
2023-06-24T03:06:55.831Z,23.05
2023-06-24T03:07:47.690Z,12.00
2023-06-24T03:08:39.780Z,10.52
2023-06-24T03:09:35.769Z,14.43
2023-06-24T03:10:26.970Z,9.73
2023-06-24T03:11:18.955Z,11.80
2023-06-24T03:12:10.209Z,12.90
2023-06-24T03:13:05.818Z,13.63
2023-06-24T03:14:05.535Z,11.60
2023-06-24T03:15:03.931Z,9.50
2023-06-24T03:15:56.287Z,9.00
2023-06-24T03:16:47.324Z,10.55
2023-06-24T03:17:41.588Z,12.30
2023-06-24T03:18:32.765Z,9.35
2023-06-24T03:19:24.101Z,13.77
2023-06-24T03:20:15.436Z,13.18
2023-06-24T03:21:07.321Z,9.48
2023-06-24T03:21:58.736Z,14.38
2023-06-24T03:22:50.028Z,10.38
2023-06-24T03:23:42.390Z,8.30
2023-06-24T03:24:36.257Z,19.85
2023-06-24T03:25:27.702Z,9.32
2023-06-24T03:26:19.147Z,10.93
2023-06-24T03:27:11.163Z,9.10
2023-06-24T03:28:08.489Z,12.65
2023-06-24T03:29:04.237Z,11.35
2023-06-24T03:29:57.024Z,10.23
2023-06-24T03:30:50.249Z,13.32
2023-06-24T03:31:45.353Z,9.52
2023-06-24T03:32:40.321Z,10.20
2023-06-24T03:33:31.525Z,8.70
2023-06-24T03:35:14.941Z,10.32
2023-06-24T03:36:06.403Z,11.07
2023-06-24T03:36:59.128Z,9.43
2023-06-24T03:37:50.209Z,18.50
2023-06-24T03:38:41.908Z,9.65
2023-06-24T03:39:32.956Z,11.20
2023-06-24T03:40:23.810Z,9.57
2023-06-24T03:41:15.785Z,26.02
2023-06-24T03:42:07.103Z,7.95
2023-06-24T03:42:57.858Z,13.55
2023-06-24T03:44:40.444Z,9.63
2023-06-24T03:46:23.099Z,9.20
2023-06-24T03:47:14.639Z,11.02
2023-06-24T03:48:06.484Z,8.77
2023-06-24T03:48:58.208Z,12.02
2023-06-24T03:49:48.943Z,8.32
2023-06-24T03:50:39.737Z,11.98
2023-06-24T03:51:30.724Z,7.70
2023-06-24T03:52:23.791Z,10.57
2023-06-24T03:53:15.035Z,9.73
2023-06-24T03:54:06.942Z,10.13
2023-06-24T03:54:57.796Z,14.63
2023-06-24T03:55:48.538Z,10.35
2023-06-24T03:56:40.814Z,8.88
2023-06-24T03:57:31.670Z,9.85
2023-06-24T03:58:22.715Z,8.38
2023-06-24T04:00:14.224Z,10.10
2023-06-24T04:01:05.026Z,8.23
2023-06-24T04:01:55.812Z,11.07
2023-06-24T04:02:46.707Z,6.50
2023-06-24T04:03:37.786Z,10.32
2023-06-24T04:04:30.942Z,10.02
2023-06-24T04:05:22.931Z,9.70
2023-06-24T04:06:13.847Z,10.05
2023-06-24T04:07:06.681Z,9.15
2023-06-24T04:07:57.227Z,8.43
2023-06-24T04:08:50.066Z,12.75
2023-06-24T04:09:41.315Z,8.18
2023-06-24T04:10:32.481Z,8.00
2023-06-24T04:11:23.544Z,12.13
2023-06-24T04:12:14.445Z,11.00
2023-06-24T04:13:05.271Z,10.52
2023-06-24T04:13:56.523Z,9.50
2023-06-24T04:14:47.174Z,11.73
2023-06-24T04:15:40.491Z,11.52
2023-06-24T04:16:31.451Z,10.77
2023-06-24T04:17:22.391Z,8.68
2023-06-24T04:18:13.504Z,9.20
2023-06-24T04:19:04.803Z,8.35
2023-06-24T04:19:55.655Z,9.73
2023-06-24T04:20:46.318Z,8.75
2023-06-24T04:21:38.438Z,8.85
2023-06-24T04:22:29.627Z,11.18
2023-06-24T04:23:22.917Z,9.05
2023-06-24T04:24:13.932Z,10.20
2023-06-24T04:25:07.235Z,11.32
2023-06-24T04:26:00.079Z,9.38
2023-06-24T04:26:50.988Z,9.35
2023-06-24T04:27:42.237Z,8.27
2023-06-24T04:28:33.018Z,7.25
2023-06-24T04:29:25.513Z,7.90
2023-06-24T04:30:16.434Z,7.10
2023-06-24T04:31:07.213Z,10.30
2023-06-24T04:31:57.903Z,9.23
2023-06-24T04:32:49.905Z,8.52
2023-06-24T04:33:41.218Z,10.70
2023-06-24T04:34:33.693Z,7.95
2023-06-24T04:35:25.357Z,8.13
2023-06-24T04:36:17.473Z,8.38
2023-06-24T04:37:08.451Z,12.40
2023-06-24T04:37:59.745Z,8.63
2023-06-24T04:38:50.638Z,8.73
2023-06-24T04:39:41.403Z,9.10
2023-06-24T04:40:32.645Z,8.75
2023-06-24T04:41:23.351Z,8.02
2023-06-24T04:42:15.875Z,11.30
2023-06-24T04:43:06.637Z,7.93
2023-06-24T04:43:57.377Z,7.40
2023-06-24T04:44:52.424Z,7.15
2023-06-24T04:45:43.568Z,5.55
2023-06-24T04:46:35.572Z,6.95
2023-06-24T04:47:26.694Z,6.40
2023-06-24T04:48:17.513Z,12.23
2023-06-24T04:49:08.274Z,8.18
2023-06-24T04:49:59.093Z,8.63
2023-06-24T04:50:50.093Z,9.52
2023-06-24T04:51:41.997Z,8.98
2023-06-24T04:52:32.678Z,8.55
2023-06-24T04:53:23.648Z,9.93
2023-06-24T04:54:14.419Z,7.90
2023-06-24T04:55:05.903Z,11.30
2023-06-24T04:55:56.676Z,10.02
2023-06-24T04:56:50.270Z,9.63
2023-06-24T04:57:41.959Z,7.60
2023-06-24T04:59:23.701Z,8.32
2023-06-24T05:00:14.856Z,9.27
2023-06-24T05:01:06.068Z,10.85
2023-06-24T05:01:56.991Z,9.02
2023-06-24T05:02:47.955Z,7.63
2023-06-24T05:03:38.721Z,7.93
2023-06-24T05:04:29.418Z,7.90
2023-06-24T05:05:21.848Z,7.20
2023-06-24T05:06:13.036Z,8.65
2023-06-24T05:07:04.189Z,9.20
2023-06-24T05:07:55.193Z,9.07
2023-06-24T05:08:45.926Z,11.18
2023-06-24T05:09:39.005Z,10.60
2023-06-24T05:10:30.046Z,9.85
2023-06-24T05:11:20.930Z,6.57
2023-06-24T05:12:11.932Z,8.20
2023-06-24T05:13:02.883Z,10.77
2023-06-24T05:13:53.751Z,9.30
2023-06-24T05:14:44.864Z,8.55
2023-06-24T05:15:35.802Z,9.15
2023-06-24T05:16:27.031Z,8.57
2023-06-24T05:17:17.909Z,7.15
2023-06-24T05:18:08.849Z,9.38
2023-06-24T05:18:59.589Z,8.10
2023-06-24T05:19:50.401Z,8.02
2023-06-24T05:20:41.513Z,9.23
2023-06-24T05:21:32.732Z,8.35
2023-06-24T05:22:24.455Z,10.48
2023-06-24T05:24:06.563Z,7.45
2023-06-24T05:24:57.597Z,5.90
2023-06-24T05:25:48.528Z,8.00
2023-06-24T05:26:39.315Z,6.93
2023-06-24T05:27:30.317Z,8.80
2023-06-24T05:28:21.138Z,13.50
2023-06-24T05:29:13.011Z,10.15
2023-06-24T05:30:54.898Z,13.45
2023-06-24T05:31:45.849Z,9.20
2023-06-24T05:32:36.636Z,10.85
2023-06-24T05:33:27.465Z,13.00
2023-06-24T05:34:18.370Z,7.30
2023-06-24T05:35:09.812Z,9.55
2023-06-24T05:36:00.694Z,9.38
2023-06-24T05:36:51.624Z,9.60
2023-06-24T05:37:42.417Z,9.93
2023-06-24T05:38:33.141Z,9.32
2023-06-24T05:39:23.890Z,7.45
2023-06-24T05:40:14.965Z,8.95
2023-06-24T05:41:05.849Z,11.38
2023-06-24T05:41:56.657Z,8.73
2023-06-24T05:42:47.489Z,7.80
2023-06-24T05:43:39.036Z,8.45
2023-06-24T05:44:31.372Z,7.35
2023-06-24T05:45:22.189Z,8.68
2023-06-24T05:46:13.211Z,10.07
2023-06-24T05:47:04.170Z,8.23
2023-06-24T05:47:55.310Z,8.75
2023-06-24T05:48:45.944Z,7.20
2023-06-24T05:49:36.812Z,10.65
2023-06-24T05:50:27.588Z,7.85
2023-06-24T05:51:18.387Z,7.38
2023-06-24T05:52:09.013Z,7.90
2023-06-24T05:53:00.003Z,10.30
2023-06-24T05:53:50.861Z,8.55
2023-06-24T05:54:41.621Z,8.85
2023-06-24T05:55:32.456Z,10.38
2023-06-24T05:56:23.754Z,6.30
2023-06-24T05:57:15.024Z,7.75
2023-06-24T05:58:06.101Z,8.13
2023-06-24T05:58:59.356Z,8.05
2023-06-24T05:59:50.472Z,7.57
2023-06-24T06:00:41.292Z,10.57
2023-06-24T06:01:32.153Z,7.03
2023-06-24T06:02:22.987Z,10.90
2023-06-24T06:03:13.764Z,8.02
2023-06-24T06:04:04.749Z,9.27
2023-06-24T06:04:55.394Z,12.32
2023-06-24T06:05:46.438Z,7.95
2023-06-24T06:06:37.039Z,9.25
2023-06-24T06:07:28.089Z,8.52
2023-06-24T06:08:18.850Z,8.57
2023-06-24T06:09:10.346Z,11.35
2023-06-24T06:10:01.830Z,10.15
2023-06-24T06:11:45.628Z,12.20
2023-06-24T06:12:36.516Z,10.20
2023-06-24T06:13:27.327Z,10.23
2023-06-24T06:14:18.135Z,11.45
2023-06-24T06:15:09.794Z,9.05
2023-06-24T06:16:51.497Z,9.30
2023-06-24T06:17:42.348Z,12.10
2023-06-24T06:18:33.056Z,10.82
2023-06-24T06:19:23.991Z,11.43
2023-06-24T06:20:14.948Z,11.70
2023-06-24T06:21:05.677Z,10.60
2023-06-24T06:21:56.644Z,11.10
2023-06-24T06:22:47.415Z,10.57
2023-06-24T06:23:38.029Z,10.80
2023-06-24T06:24:28.920Z,10.02
2023-06-24T06:25:19.722Z,10.23
2023-06-24T06:26:10.606Z,12.77
2023-06-24T06:27:01.393Z,12.95
2023-06-24T06:27:52.118Z,12.32
2023-06-24T06:28:43.010Z,11.98
2023-06-24T06:29:33.864Z,11.93
2023-06-24T06:30:24.438Z,11.60
2023-06-24T06:31:16.226Z,13.20
2023-06-24T06:32:07.756Z,12.02
2023-06-24T06:32:58.507Z,13.32
2023-06-24T06:33:49.143Z,12.85
2023-06-24T06:34:39.992Z,13.85
2023-06-24T06:35:33.254Z,15.55
2023-06-24T06:36:24.095Z,12.82
2023-06-24T06:37:14.879Z,11.48
2023-06-24T06:38:06.165Z,11.10
2023-06-24T06:38:57.140Z,12.00
2023-06-24T06:39:47.789Z,12.65
2023-06-24T06:40:38.723Z,14.60
2023-06-24T06:41:29.512Z,11.27
2023-06-24T06:42:20.277Z,14.25
2023-06-24T06:43:10.924Z,13.18
2023-06-24T06:44:01.828Z,12.10
2023-06-24T06:44:52.732Z,15.68
2023-06-24T06:45:43.610Z,11.80
2023-06-24T06:46:34.447Z,11.90
2023-06-24T06:47:25.271Z,11.50
2023-06-24T06:48:16.140Z,12.55
2023-06-24T06:49:06.794Z,11.05
2023-06-24T06:49:57.503Z,13.23
2023-06-24T06:50:48.342Z,13.50
2023-06-24T06:51:39.195Z,13.75
2023-06-24T06:52:29.953Z,17.05
2023-06-24T06:53:20.935Z,11.40
2023-06-24T06:54:12.146Z,11.35
2023-06-24T06:55:03.002Z,15.07
2023-06-24T06:55:54.037Z,13.45
2023-06-24T06:56:44.692Z,10.63
2023-06-24T06:57:35.386Z,12.38
2023-06-24T06:58:26.333Z,15.23
2023-06-24T06:59:17.628Z,12.85
2023-06-24T07:00:10.280Z,12.52
2023-06-24T07:01:06.285Z,12.15
2023-06-24T07:01:57.166Z,12.77
2023-06-24T07:02:48.244Z,11.60
2023-06-24T07:03:40.270Z,11.23
2023-06-24T07:05:23.165Z,14.20
2023-06-24T07:06:13.956Z,14.82
2023-06-24T07:07:05.128Z,13.27
2023-06-24T07:07:56.030Z,14.38
2023-06-24T07:08:47.274Z,17.45
2023-06-24T07:09:38.020Z,12.52
2023-06-24T07:10:28.657Z,13.00
2023-06-24T07:11:19.775Z,15.60
2023-06-24T07:12:10.765Z,15.45
2023-06-24T07:13:02.094Z,13.15
2023-06-24T07:13:53.048Z,13.55
2023-06-24T07:14:43.963Z,12.50
2023-06-24T07:15:35.049Z,13.48
2023-06-24T07:16:26.073Z,14.40
2023-06-24T07:17:16.859Z,11.50
2023-06-24T07:18:07.541Z,16.92
2023-06-24T07:18:58.544Z,10.60
2023-06-24T07:19:49.523Z,13.05
2023-06-24T07:20:42.446Z,15.95
2023-06-24T07:21:33.345Z,12.68
2023-06-24T07:22:24.185Z,15.18
2023-06-24T07:23:15.066Z,11.43
2023-06-24T07:24:06.201Z,10.85
2023-06-24T07:24:58.171Z,12.32
2023-06-24T07:27:32.989Z,14.52
2023-06-24T07:28:24.487Z,13.07
2023-06-24T07:29:15.101Z,10.38
2023-06-24T07:30:07.065Z,10.02
2023-06-24T07:32:39.894Z,11.60
2023-06-24T07:33:31.950Z,10.98
2023-06-24T07:34:22.936Z,12.68
2023-06-24T07:35:14.481Z,13.05
2023-06-24T07:36:57.000Z,9.80
2023-06-24T07:37:48.223Z,13.02
2023-06-24T07:38:38.919Z,10.52
2023-06-24T07:39:29.760Z,10.98
2023-06-24T07:40:20.803Z,16.92
2023-06-24T07:41:11.459Z,16.88
2023-06-24T07:42:02.054Z,7.88
2023-06-24T07:42:53.868Z,10.10
2023-06-24T07:45:26.597Z,10.65
2023-06-24T07:46:18.075Z,9.95
2023-06-24T07:47:09.243Z,12.10
2023-06-24T07:48:00.016Z,8.43
2023-06-24T07:48:50.645Z,8.40
2023-06-24T07:49:41.657Z,7.68
2023-06-24T07:50:32.542Z,7.05
2023-06-24T07:51:23.267Z,11.48
2023-06-24T07:52:14.318Z,9.20
2023-06-24T07:53:05.294Z,8.32
2023-06-24T07:53:56.114Z,8.90
2023-06-24T07:54:46.737Z,11.82
2023-06-24T07:55:37.924Z,8.00
2023-06-24T07:56:29.413Z,7.35
2023-06-24T07:57:20.115Z,10.10
2023-06-24T07:58:10.725Z,7.68
2023-06-24T07:59:01.676Z,7.35
2023-06-24T07:59:53.027Z,10.25
2023-06-24T08:00:44.137Z,8.70
2023-06-24T08:01:35.090Z,8.57
2023-06-24T08:02:26.108Z,8.38
2023-06-24T08:03:17.123Z,7.97
2023-06-24T08:04:08.363Z,10.70
2023-06-24T08:04:59.577Z,6.60
2023-06-24T08:05:51.193Z,8.50
2023-06-24T08:08:23.673Z,7.78
2023-06-24T08:09:14.732Z,7.15
2023-06-24T08:10:06.210Z,6.75
2023-06-24T08:11:47.888Z,8.38
2023-06-24T08:12:38.819Z,10.85
2023-06-24T08:13:29.762Z,7.28
2023-06-24T08:14:20.564Z,7.93
2023-06-24T08:15:11.511Z,7.72
2023-06-24T08:16:02.233Z,9.20
2023-06-24T08:16:52.933Z,11.10
2023-06-24T08:17:43.818Z,7.47
2023-06-24T08:18:34.896Z,7.03
2023-06-24T08:19:25.745Z,5.57
2023-06-24T08:20:16.437Z,6.18
2023-06-24T08:21:07.347Z,10.25
2023-06-24T08:21:58.220Z,8.60
2023-06-24T08:22:49.372Z,7.32
2023-06-24T08:23:40.347Z,7.18
2023-06-24T08:24:31.183Z,11.07
2023-06-24T08:25:22.100Z,6.57
2023-06-24T08:26:17.469Z,7.00
2023-06-24T08:27:09.773Z,6.68
2023-06-24T08:28:00.813Z,8.13
2023-06-24T08:28:51.620Z,5.22
2023-06-24T08:29:42.375Z,5.75
2023-06-24T08:30:34.164Z,5.45
2023-06-24T08:31:26.073Z,6.15
2023-06-24T08:32:16.754Z,4.70
2023-06-24T08:33:07.427Z,5.57
2023-06-24T08:34:00.710Z,6.20
2023-06-24T08:34:51.683Z,7.07
2023-06-24T08:35:42.663Z,5.57
2023-06-24T08:36:33.614Z,5.05
2023-06-24T08:37:24.301Z,5.25
2023-06-24T08:38:14.936Z,5.25
2023-06-24T08:39:08.094Z,6.00
2023-06-24T08:39:59.115Z,7.95
2023-06-24T08:40:50.573Z,5.82
2023-06-24T08:42:35.597Z,11.88
2023-06-24T08:43:26.483Z,6.82
2023-06-24T08:44:17.562Z,7.20
2023-06-24T08:45:08.679Z,8.70
2023-06-24T08:46:00.018Z,4.85
2023-06-24T08:46:51.300Z,4.22
2023-06-24T08:47:42.769Z,5.30
2023-06-24T08:48:41.091Z,7.57
2023-06-24T08:49:32.458Z,5.85
2023-06-24T08:50:28.237Z,4.22
2023-06-24T08:51:24.865Z,3.50
2023-06-24T08:52:17.637Z,3.88
2023-06-24T08:53:09.665Z,3.42
2023-06-24T08:54:01.493Z,5.78
2023-06-24T08:55:46.520Z,5.32
2023-06-24T08:56:39.986Z,5.22
2023-06-24T08:57:31.087Z,4.50
2023-06-24T08:58:22.730Z,4.03
2023-06-24T08:59:13.719Z,5.38
2023-06-24T09:00:05.461Z,5.55
2023-06-24T09:00:56.939Z,4.47
2023-06-24T09:01:48.717Z,4.75
2023-06-24T09:03:31.175Z,4.55
2023-06-24T09:04:21.881Z,3.47
2023-06-24T09:05:12.649Z,3.72
2023-06-24T09:06:03.531Z,6.80
2023-06-24T09:06:54.442Z,5.85
2023-06-24T09:07:45.512Z,5.78
2023-06-24T09:08:36.888Z,4.95
2023-06-24T09:09:29.486Z,3.90
2023-06-24T09:10:58.957Z,4.28
2023-06-24T09:11:58.151Z,4.60
2023-06-24T09:12:55.817Z,5.25
2023-06-24T09:13:46.732Z,4.55
2023-06-24T09:14:37.665Z,4.43
2023-06-24T09:15:40.758Z,4.70
2023-06-24T09:16:31.915Z,4.90
2023-06-24T09:17:23.840Z,4.82
2023-06-24T09:18:18.504Z,4.93
2023-06-24T09:19:09.218Z,4.53
2023-06-24T09:20:07.165Z,5.05
2023-06-24T09:21:48.668Z,5.07
2023-06-24T09:22:42.384Z,4.22
2023-06-24T09:23:38.145Z,7.28
2023-06-24T09:24:31.684Z,4.72
2023-06-24T09:25:22.437Z,4.88
2023-06-24T09:26:13.410Z,7.15
2023-06-24T09:27:05.384Z,6.22
2023-06-24T09:28:00.560Z,6.88
2023-06-24T09:28:52.345Z,4.60
2023-06-24T09:29:44.512Z,5.95
2023-06-24T09:30:35.300Z,5.72
2023-06-24T09:31:26.221Z,5.93
2023-06-24T09:32:17.345Z,4.63
2023-06-24T09:33:12.274Z,3.03
2023-06-24T09:34:03.324Z,5.60
2023-06-24T09:34:55.474Z,3.75
2023-06-24T09:35:47.867Z,7.72
2023-06-24T09:36:43.819Z,5.03
2023-06-24T09:37:35.010Z,4.13
2023-06-24T09:38:39.560Z,6.88
2023-06-24T09:39:40.187Z,6.25
2023-06-24T09:40:36.693Z,6.05
2023-06-24T09:41:29.432Z,6.30
2023-06-24T09:42:23.864Z,6.03
2023-06-24T09:43:21.519Z,6.00
2023-06-24T09:44:12.791Z,5.05
2023-06-24T09:45:07.193Z,5.40
2023-06-24T09:46:00.011Z,4.22
2023-06-24T09:46:51.157Z,4.38
2023-06-24T09:47:42.034Z,5.45
2023-06-24T09:48:34.056Z,4.97
2023-06-24T09:49:25.337Z,5.18
2023-06-24T09:51:09.815Z,4.95
2023-06-24T09:52:02.502Z,4.25
2023-06-24T09:52:53.922Z,5.85
2023-06-24T09:53:45.581Z,4.95
2023-06-24T09:54:38.064Z,4.20
2023-06-24T09:55:29.505Z,4.95
2023-06-24T09:57:13.231Z,7.00
2023-06-24T09:58:05.169Z,5.75
2023-06-24T09:58:56.063Z,4.10
2023-06-24T09:59:47.844Z,4.35
2023-06-24T10:00:39.080Z,3.45
2023-06-24T10:01:33.497Z,8.25
2023-06-24T10:02:25.041Z,3.45
2023-06-24T10:03:16.146Z,5.28
2023-06-24T10:04:11.579Z,4.68
2023-06-24T10:05:02.796Z,2.95
2023-06-24T10:05:54.324Z,4.38
2023-06-24T10:06:45.524Z,4.38
2023-06-24T10:07:37.662Z,2.95
2023-06-24T10:08:29.770Z,4.38
2023-06-24T10:09:20.997Z,10.00
2023-06-24T10:10:11.866Z,4.28
2023-06-24T10:11:03.665Z,4.40
2023-06-24T10:11:54.588Z,5.22
2023-06-24T10:12:45.597Z,4.00
2023-06-24T10:13:36.448Z,6.20
2023-06-24T10:14:27.368Z,7.55
2023-06-24T10:15:18.428Z,5.18
2023-06-24T10:16:09.583Z,3.88
2023-06-24T10:17:05.154Z,4.53
2023-06-24T10:19:03.231Z,4.50
2023-06-24T10:19:55.558Z,3.65
2023-06-24T10:20:49.526Z,4.10
2023-06-24T10:21:54.244Z,4.88
2023-06-24T10:22:47.179Z,4.18
2023-06-24T10:23:56.277Z,6.50
2023-06-24T10:24:48.703Z,4.80
2023-06-24T10:25:39.738Z,4.97
2023-06-24T10:26:36.210Z,5.75
2023-06-24T10:27:28.360Z,5.57
2023-06-24T10:28:19.283Z,3.88
2023-06-24T10:29:11.045Z,5.05
2023-06-24T10:30:58.325Z,4.13
2023-06-24T10:31:48.952Z,5.35
2023-06-24T10:32:46.876Z,3.60
2023-06-24T10:34:32.141Z,6.40
2023-06-24T10:35:30.910Z,5.80
2023-06-24T10:36:33.784Z,6.88
2023-06-24T10:37:26.917Z,5.63
2023-06-24T10:38:17.955Z,5.47
2023-06-24T10:39:41.118Z,5.22
2023-06-24T10:41:26.629Z,5.22
2023-06-24T10:42:26.544Z,3.50
2023-06-24T10:43:28.569Z,4.32
2023-06-24T10:44:19.260Z,3.72
2023-06-24T10:45:10.235Z,4.78
2023-06-24T10:46:01.133Z,6.72
2023-06-24T10:46:56.116Z,4.88
2023-06-24T10:47:53.959Z,5.22
2023-06-24T10:48:44.930Z,4.00
2023-06-24T10:49:35.815Z,5.60
2023-06-24T10:50:26.697Z,4.20
2023-06-24T10:51:17.541Z,4.15
2023-06-24T10:52:12.842Z,4.72
2023-06-24T10:53:09.847Z,5.13
2023-06-24T10:54:00.990Z,4.43
2023-06-24T10:54:53.030Z,3.47
2023-06-24T10:55:44.753Z,3.85
2023-06-24T10:56:35.541Z,5.20
2023-06-24T10:57:28.403Z,4.82
2023-06-24T10:58:19.440Z,4.20
2023-06-24T10:59:10.924Z,4.72
2023-06-24T11:00:53.190Z,5.63
2023-06-24T11:01:56.265Z,6.10
2023-06-24T11:02:47.170Z,4.30
2023-06-24T11:03:41.053Z,5.53
2023-06-24T11:04:32.151Z,5.25
2023-06-24T11:05:22.835Z,4.05
2023-06-24T11:06:14.142Z,7.20
2023-06-24T11:07:05.059Z,6.00
2023-06-24T11:07:58.007Z,4.65
2023-06-24T11:08:49.093Z,3.55
2023-06-24T11:09:46.058Z,3.72
2023-06-24T11:11:04.492Z,4.75
2023-06-24T11:11:55.452Z,6.07
2023-06-24T11:12:47.583Z,4.75
2023-06-24T11:13:42.432Z,4.72
2023-06-24T11:14:37.257Z,6.50
2023-06-24T11:15:28.168Z,4.78
2023-06-24T11:16:22.479Z,6.43
2023-06-24T11:17:13.445Z,5.85
2023-06-24T11:18:05.386Z,4.13
2023-06-24T11:19:47.396Z,4.80
2023-06-24T11:21:33.725Z,3.85
2023-06-24T11:22:25.676Z,7.25
2023-06-24T11:23:16.463Z,7.22
2023-06-24T11:24:07.733Z,4.38
2023-06-24T11:24:58.433Z,5.13
2023-06-24T11:25:49.217Z,3.67
2023-06-24T11:26:40.070Z,4.55
2023-06-24T11:27:33.129Z,4.03
2023-06-24T11:28:25.341Z,5.32
2023-06-24T11:29:16.568Z,6.05
2023-06-24T11:30:08.197Z,3.80
2023-06-24T11:31:07.838Z,5.22
2023-06-24T11:31:58.710Z,3.75
2023-06-24T11:32:51.095Z,3.80
2023-06-24T11:33:42.220Z,4.88
2023-06-24T11:34:33.035Z,6.78
2023-06-24T11:35:23.961Z,9.95
2023-06-24T11:36:18.565Z,4.68
2023-06-24T11:37:14.295Z,7.03
2023-06-24T11:38:05.568Z,5.72
2023-06-24T11:38:56.392Z,4.38
2023-06-24T11:40:02.530Z,5.03
2023-06-24T11:40:53.744Z,3.50
2023-06-24T11:41:45.102Z,5.55
2023-06-24T11:42:41.374Z,3.65
2023-06-24T11:43:32.324Z,5.55
2023-06-24T11:44:25.216Z,5.57
2023-06-24T11:45:21.440Z,4.35
2023-06-24T11:46:22.552Z,5.07
2023-06-24T11:47:13.892Z,3.95
2023-06-24T11:48:06.055Z,5.00
2023-06-24T11:49:09.873Z,4.53
2023-06-24T11:50:03.850Z,5.40
2023-06-24T11:50:56.096Z,4.65
2023-06-24T11:51:49.683Z,4.07
2023-06-24T11:52:53.184Z,3.53
2023-06-24T11:53:47.385Z,5.82
2023-06-24T11:54:42.550Z,4.32
2023-06-24T11:55:33.315Z,6.55
2023-06-24T11:56:41.172Z,4.25
2023-06-24T11:57:55.142Z,4.70
2023-06-24T11:58:46.509Z,6.53
2023-06-24T11:59:37.521Z,4.40
2023-06-24T12:00:40.464Z,4.72
2023-06-24T12:01:35.152Z,3.85
2023-06-24T12:02:26.188Z,4.72
2023-06-24T12:03:17.456Z,6.57
2023-06-24T12:04:15.143Z,4.97
2023-06-24T12:05:06.898Z,4.35
2023-06-24T12:05:57.832Z,4.28
2023-06-24T12:06:48.539Z,6.95
2023-06-24T12:07:39.722Z,5.25
2023-06-24T12:08:39.376Z,4.75
2023-06-24T12:09:41.521Z,4.97
2023-06-24T12:10:36.514Z,4.32
2023-06-24T12:11:27.703Z,4.28